Terminal Aerodrome Forecast
Issued by NWS Green Bay, WI

Home | Current Version | Previous Version | Graphics & Text | Print | Product List | Glossary On
Versions: 1 2 3 4 5 6 7 8 9 10 11 12 13 14 15 16
000
FTUS43 KGRB 190525
TAFGRB
TAF
KGRB 190525Z 1906/2006 28003KT P6SM SCT040 BKN070
     FM190800 35005KT P6SM BKN100
      TEMPO 1908/1912 3SM BR
     FM191500 01006KT P6SM SCT040
     FM192000 10006KT P6SM SKC
     FM200200 16004KT P6SM SCT040 BKN100=

USA.gov is the U.S. government's official web portal to all federal, state and local government web resources and services.